Time,TemperatureF,DewpointF,PressureIn,WindDirection,WindDirectionDegrees,WindSpeedMPH,WindSpeedGustMPH,Humidity,HourlyPrecipIn,Conditions,Clouds,dailyrainin,SoftwareType,DateUTC
2013-07-14 00:11:00,71.1,64.2,29.90,North,0,1.7,-999.0,79,-99.99,,,0.00,Acu-Link.com,2013-07-14 05:11:00,
2013-07-14 00:26:00,71.1,64.2,29.90,East,90,2.7,-999.0,79,-99.99,,,0.00,Acu-Link.com,2013-07-14 05:26:00,
2013-07-14 00:41:00,70.5,63.7,29.89,ENE,67,1.7,-999.0,79,-99.99,,,0.00,Acu-Link.com,2013-07-14 05:41:00,
2013-07-14 00:56:00,70.3,63.8,29.90,ESE,112,1.1,-999.0,80,-99.99,,,0.00,Acu-Link.com,2013-07-14 05:56:00,
2013-07-14 01:12:00,70.2,63.7,29.90,SSE,157,1.1,-999.0,80,-99.99,,,0.00,Acu-Link.com,2013-07-14 06:12:00,
2013-07-14 01:27:00,70.0,63.5,29.90,ESE,112,1.7,-999.0,80,-99.99,,,0.00,Acu-Link.com,2013-07-14 06:27:00,
2013-07-14 01:42:00,70.0,63.5,29.90,WNW,292,0.0,-999.0,80,-99.99,,,0.00,Acu-Link.com,2013-07-14 06:42:00,
2013-07-14 01:57:00,69.6,63.5,29.89,ESE,112,3.2,-999.0,81,-99.99,,,0.00,Acu-Link.com,2013-07-14 06:57:00,
2013-07-14 02:12:00,69.4,63.3,29.89,South,180,2.7,-999.0,81,-99.99,,,0.00,Acu-Link.com,2013-07-14 07:12:00,
2013-07-14 02:28:00,69.4,63.3,29.89,SSE,157,2.2,-999.0,81,-99.99,,,0.00,Acu-Link.com,2013-07-14 07:28:00,
2013-07-14 02:43:00,68.9,62.8,29.88,ESE,112,1.7,-999.0,81,-99.99,,,0.00,Acu-Link.com,2013-07-14 07:43:00,
2013-07-14 02:58:00,68.9,62.8,29.88,East,90,2.2,-999.0,81,-99.99,,,0.00,Acu-Link.com,2013-07-14 07:58:00,
2013-07-14 03:14:00,68.9,62.8,29.87,ESE,112,1.1,-999.0,81,-99.99,,,0.00,Acu-Link.com,2013-07-14 08:14:00,
2013-07-14 03:29:00,69.1,63.0,29.88,East,90,2.2,-999.0,81,-99.99,,,0.00,Acu-Link.com,2013-07-14 08:29:00,
2013-07-14 03:44:00,68.9,62.8,29.87,SE,135,1.7,-999.0,81,-99.99,,,0.00,Acu-Link.com,2013-07-14 08:44:00,
2013-07-14 03:59:00,68.7,62.6,29.87,East,90,1.7,-999.0,81,-99.99,,,0.00,Acu-Link.com,2013-07-14 08:59:00,
2013-07-14 04:14:00,68.7,62.6,29.86,ESE,112,2.7,-999.0,81,-99.99,,,0.00,Acu-Link.com,2013-07-14 09:14:00,
2013-07-14 04:29:00,68.7,62.6,29.88,SSW,202,2.7,-999.0,81,-99.99,,,0.00,Acu-Link.com,2013-07-14 09:29:00,
2013-07-14 04:44:00,68.5,62.1,29.88,ESE,112,1.1,-999.0,80,-99.99,,,0.00,Acu-Link.com,2013-07-14 09:44:00,
2013-07-14 04:59:00,68.4,62.0,29.89,East,90,2.2,-999.0,80,-99.99,,,0.00,Acu-Link.com,2013-07-14 09:59:00,
2013-07-14 05:14:00,68.4,61.6,29.90,SSE,157,1.7,-999.0,79,-99.99,,,0.00,Acu-Link.com,2013-07-14 10:14:00,
2013-07-14 05:30:00,67.8,61.0,29.90,SE,135,2.2,-999.0,79,-99.99,,,0.00,Acu-Link.com,2013-07-14 10:30:00,
2013-07-14 05:45:00,67.6,60.8,29.90,East,90,1.7,-999.0,79,-99.99,,,0.00,Acu-Link.com,2013-07-14 10:45:00,
2013-07-14 06:00:00,67.5,60.8,29.91,WNW,292,2.7,-999.0,79,-99.99,,,0.00,Acu-Link.com,2013-07-14 11:00:00,
2013-07-14 06:15:00,67.8,61.0,29.91,North,0,1.7,-999.0,79,-99.99,,,0.00,Acu-Link.com,2013-07-14 11:15:00,
2013-07-14 06:30:00,68.2,61.1,29.91,NE,45,1.7,-999.0,78,-99.99,,,0.00,Acu-Link.com,2013-07-14 11:30:00,
2013-07-14 06:45:00,68.5,61.4,29.91,NE,45,1.1,-999.0,78,-99.99,,,0.00,Acu-Link.com,2013-07-14 11:45:00,
2013-07-14 07:01:00,68.5,61.4,29.91,ESE,112,1.7,-999.0,78,-99.99,,,0.00,Acu-Link.com,2013-07-14 12:01:00,
2013-07-14 07:16:00,68.2,61.4,29.92,NNE,22,2.2,-999.0,79,-99.99,,,0.00,Acu-Link.com,2013-07-14 12:16:00,
2013-07-14 07:31:00,68.0,61.6,29.91,NNE,22,2.7,-999.0,80,-99.99,,,0.00,Acu-Link.com,2013-07-14 12:31:00,
2013-07-14 07:46:00,68.2,61.8,29.92,ESE,112,2.2,-999.0,80,-99.99,,,0.00,Acu-Link.com,2013-07-14 12:46:00,
2013-07-14 08:01:00,68.2,61.8,29.92,NE,45,2.2,-999.0,80,-99.99,,,0.00,Acu-Link.com,2013-07-14 13:01:00,
2013-07-14 08:17:00,68.4,62.0,29.94,ENE,67,3.2,-999.0,80,-99.99,,,0.00,Acu-Link.com,2013-07-14 13:17:00,
2013-07-14 08:32:00,68.7,62.3,29.94,South,180,1.7,-999.0,80,-99.99,,,0.00,Acu-Link.com,2013-07-14 13:32:00,
2013-07-14 08:47:00,68.9,62.5,29.94,SE,135,3.2,-999.0,80,-99.99,,,0.00,Acu-Link.com,2013-07-14 13:47:00,
2013-07-14 09:02:00,69.6,62.4,29.95,NE,45,2.7,-999.0,78,-99.99,,,0.00,Acu-Link.com,2013-07-14 14:02:00,
2013-07-14 09:17:00,69.4,62.2,29.96,ESE,112,0.0,-999.0,78,-99.99,,,0.00,Acu-Link.com,2013-07-14 14:17:00,
2013-07-14 09:32:00,69.8,62.6,29.97,SW,225,0.0,-999.0,78,-99.99,,,0.00,Acu-Link.com,2013-07-14 14:32:00,
2013-07-14 09:48:00,69.4,62.6,29.97,East,90,0.0,-999.0,79,-99.99,,,0.00,Acu-Link.com,2013-07-14 14:48:00,
2013-07-14 10:03:00,70.0,62.8,29.97,NNE,22,0.0,-999.0,78,-99.99,,,0.00,Acu-Link.com,2013-07-14 15:03:00,
2013-07-14 10:18:00,69.6,62.8,29.97,East,90,0.0,-999.0,79,-99.99,,,0.00,Acu-Link.com,2013-07-14 15:18:00,
2013-07-14 10:33:00,70.0,62.8,29.97,ESE,112,1.7,-999.0,78,-99.99,,,0.00,Acu-Link.com,2013-07-14 15:33:00,
2013-07-14 10:48:00,70.2,62.6,29.97,NNE,22,1.7,-999.0,77,-99.99,,,0.00,Acu-Link.com,2013-07-14 15:48:00,
2013-07-14 11:04:00,70.3,62.4,29.97,SE,135,1.1,-999.0,76,-99.99,,,0.00,Acu-Link.com,2013-07-14 16:04:00,
2013-07-14 11:19:00,70.5,62.9,29.98,South,180,0.0,-999.0,77,-99.99,,,0.00,Acu-Link.com,2013-07-14 16:19:00,
2013-07-14 11:34:00,69.8,63.0,29.98,ENE,67,1.1,-999.0,79,-99.99,,,0.00,Acu-Link.com,2013-07-14 16:34:00,
2013-07-14 11:49:00,69.8,63.3,29.98,ESE,112,1.1,-999.0,80,-99.99,,,0.00,Acu-Link.com,2013-07-14 16:49:00,
2013-07-14 12:05:00,71.2,64.7,29.99,South,180,2.7,-999.0,80,-99.99,,,0.00,Acu-Link.com,2013-07-14 17:05:00,
2013-07-14 12:20:00,70.5,64.0,29.99,ESE,112,1.1,-999.0,80,-99.99,,,0.00,Acu-Link.com,2013-07-14 17:20:00,
2013-07-14 12:35:00,70.2,63.7,29.96,ESE,112,2.2,-999.0,80,-99.99,,,0.00,Acu-Link.com,2013-07-14 17:35:00,
2013-07-14 12:50:00,70.0,63.9,29.98,SSE,157,0.0,-999.0,81,-99.99,,,0.00,Acu-Link.com,2013-07-14 17:50:00,
2013-07-14 13:05:00,70.0,64.2,29.99,NNE,22,1.7,-999.0,82,-99.99,,,0.00,Acu-Link.com,2013-07-14 18:05:00,
2013-07-14 13:20:00,69.1,63.7,29.99,NNE,22,1.7,-999.0,83,-99.99,,,0.00,Acu-Link.com,2013-07-14 18:20:00,
2013-07-14 13:36:00,67.8,63.1,30.00,SE,135,1.1,-999.0,85,-99.99,,,0.01,Acu-Link.com,2013-07-14 18:36:00,
2013-07-14 13:51:00,67.6,63.3,30.00,East,90,0.0,-999.0,86,-99.99,,,0.02,Acu-Link.com,2013-07-14 18:51:00,
2013-07-14 14:06:00,67.8,63.8,30.01,West,270,0.0,-999.0,87,-99.99,,,0.02,Acu-Link.com,2013-07-14 19:06:00,
2013-07-14 14:21:00,67.8,63.8,30.00,NNE,22,1.7,-999.0,87,-99.99,,,0.02,Acu-Link.com,2013-07-14 19:21:00,
2013-07-14 14:36:00,68.2,64.2,30.00,East,90,1.1,-999.0,87,-99.99,,,0.02,Acu-Link.com,2013-07-14 19:36:00,
2013-07-14 14:51:00,68.7,64.7,30.00,NE,45,0.0,-999.0,87,-99.99,,,0.02,Acu-Link.com,2013-07-14 19:51:00,
2013-07-14 17:40:00,70.5,66.4,30.00,WNW,292,0.0,-999.0,87,-99.99,,,0.02,Acu-Link.com,2013-07-14 22:40:00,
2013-07-14 17:55:00,70.2,66.5,30.00,West,270,0.0,-999.0,88,-99.99,,,0.03,Acu-Link.com,2013-07-14 22:55:00,
2013-07-14 18:11:00,70.0,66.3,30.00,West,270,1.1,-999.0,88,-99.99,,,0.03,Acu-Link.com,2013-07-14 23:11:00,
2013-07-14 18:26:00,69.8,66.1,30.00,West,270,0.0,-999.0,88,-99.99,,,0.03,Acu-Link.com,2013-07-14 23:26:00,
2013-07-14 18:41:00,69.6,65.9,30.01,East,90,0.0,-999.0,88,-99.99,,,0.03,Acu-Link.com,2013-07-14 23:41:00,
2013-07-14 18:56:00,69.6,65.9,30.01,North,0,0.0,-999.0,88,-99.99,,,0.03,Acu-Link.com,2013-07-14 23:56:00,
2013-07-14 19:11:00,69.6,65.9,30.01,NNW,337,0.0,-999.0,88,-99.99,,,0.03,Acu-Link.com,2013-07-15 00:11:00,
2013-07-14 19:27:00,69.4,65.7,30.01,NW,315,0.0,-999.0,88,-99.99,,,0.04,Acu-Link.com,2013-07-15 00:27:00,
2013-07-14 19:42:00,69.3,65.6,30.01,NNW,337,1.1,-999.0,88,-99.99,,,0.05,Acu-Link.com,2013-07-15 00:42:00,
2013-07-14 19:57:00,68.9,65.5,30.01,NNW,337,0.0,-999.0,89,-99.99,,,0.06,Acu-Link.com,2013-07-15 00:57:00,
2013-07-14 20:12:00,68.9,65.5,30.01,NNW,337,0.0,-999.0,89,-99.99,,,0.06,Acu-Link.com,2013-07-15 01:12:00,
2013-07-14 20:27:00,68.5,65.1,30.01,North,0,0.0,-999.0,89,-99.99,,,0.06,Acu-Link.com,2013-07-15 01:27:00,
2013-07-14 20:43:00,68.4,65.0,30.01,SSE,157,0.0,-999.0,89,-99.99,,,0.06,Acu-Link.com,2013-07-15 01:43:00,
2013-07-14 20:58:00,68.4,65.0,30.02,West,270,1.7,-999.0,89,-99.99,,,0.06,Acu-Link.com,2013-07-15 01:58:00,
2013-07-14 21:13:00,68.2,64.8,30.02,NW,315,1.7,-999.0,89,-99.99,,,0.06,Acu-Link.com,2013-07-15 02:13:00,
2013-07-14 21:28:00,68.2,64.8,30.03,NNW,337,0.0,-999.0,89,-99.99,,,0.06,Acu-Link.com,2013-07-15 02:28:00,
2013-07-14 21:44:00,68.0,64.6,30.03,NW,315,1.7,-999.0,89,-99.99,,,0.06,Acu-Link.com,2013-07-15 02:44:00,
2013-07-14 21:59:00,68.0,64.6,30.03,West,270,1.1,-999.0,89,-99.99,,,0.06,Acu-Link.com,2013-07-15 02:59:00,
2013-07-14 22:14:00,68.0,64.6,30.04,North,0,0.0,-999.0,89,-99.99,,,0.06,Acu-Link.com,2013-07-15 03:14:00,
2013-07-14 22:29:00,68.0,65.0,30.03,South,180,1.7,-999.0,90,-99.99,,,0.06,Acu-Link.com,2013-07-15 03:29:00,
2013-07-14 22:44:00,67.8,64.8,30.04,North,0,1.1,-999.0,90,-99.99,,,0.06,Acu-Link.com,2013-07-15 03:44:00,
2013-07-14 23:00:00,67.8,64.8,30.04,North,0,1.7,-999.0,90,-99.99,,,0.06,Acu-Link.com,2013-07-15 04:00:00,
2013-07-14 23:15:00,67.6,64.6,30.04,ENE,67,0.0,-999.0,90,-99.99,,,0.06,Acu-Link.com,2013-07-15 04:15:00,
2013-07-14 23:30:00,67.6,64.6,30.04,NNE,22,1.7,-999.0,90,-99.99,,,0.06,Acu-Link.com,2013-07-15 04:30:00,
2013-07-14 23:45:00,67.6,64.6,30.05,NNE,22,1.1,-999.0,90,-99.99,,,0.06,Acu-Link.com,2013-07-15 04:45:00,